Montevideo, Uruguay

6:07 PM UYT en Julio 27, 2016 (GMT -0300)
Parque Miramar | | Change Station

Alt 30 ft 34.87 °S, 56.04 °W | Updated 5 seconds ago

Mostly Cloudy
Muy nublado
48.6 ° F
Sensación térmica 49 ° F
N
0.0
Viento Variable Viento desde SE
Gusts 0.0 mph

Hoy
Alta -- | Baja -- ° F
--% Posibilidad de precipitaciones
Ayer
Alta -- | Baja -- ° F
Precip. -- pul
Presión 30.24 pul
Visibilidad 6.2 Millas
Nubes Baja 1700 ft
Muy nublado 3000 ft
Vientos helados 49 ° F
Punto de rocío 46 ° F
Humedad 89%
Precipitaciones pul
Espesor de la nieve No disponible.
7:41 AM 5:59 PM
Cuarto menguante, 39% visible
METAR SUMU 272100Z 24006KT 9999 FEW017 BKN030 09/05 Q1024 NOSIG
Presión 30.24 pul
Visibilidad 6.2 Millas
Nubes Baja 1700 ft
Muy nublado 3000 ft
Vientos helados 49 ° F
Punto de rocío 46 ° F
Humedad 89%
Precipitaciones pul
Espesor de la nieve No disponible.
7:41 AM 5:59 PM
Cuarto menguante, 39% visible
METAR SUMU 272100Z 24006KT 9999 FEW017 BKN030 09/05 Q1024 NOSIG

10-Day Weather Forecast

No radar image for this location.
×

Almanac

Astronomía

Jul. 27, 2016 Salida Puesta
Hora real
Crepúsculo civil
Crepúsculo náutico
Crepúsculo astronómico
Luna
Horas de luz
Horas de luz
Tomorrow will be .
, % of the Moon is Illuminated

Extremos de hoy

Máximos del país Bajas del país

Community

WunderPhotos

Upload Photos

1,927,936 ¡fotos cargadas!

WunderBlog® & News

Nearby

Calidad del aire

  Calidad del aire Índice AQ Contaminante
Not available.

Grosos de nieve

Estación Profundido Altura

Actividad de terremotos

Ciudad Distance Mag. Tiempo y dato
Magnitud mínima muestra es 2,5.

Temperaturas de aguas costeras

Lugar Temperatura

Stations

Estaciones meteorológicas cercanas

Ubicación de la estación Temp. Vientos helados Punto de rocío Humedad Viento Precip. Alt Actualizado Tipo